sensor_id;sensor_type;location;lat;lon;timestamp;temperature;humidity
8424;DHT22;4249;49.072;9.770;2022-09-13T00:02:02;12.60;1.00
8424;DHT22;4249;49.072;9.770;2022-09-13T00:04:49;12.60;1.00
8424;DHT22;4249;49.072;9.770;2022-09-13T00:07:36;12.60;1.00
8424;DHT22;4249;49.072;9.770;2022-09-13T00:10:24;12.60;1.00
8424;DHT22;4249;49.072;9.770;2022-09-13T00:13:13;12.50;1.00
8424;DHT22;4249;49.072;9.770;2022-09-13T00:16:02;12.50;1.00
8424;DHT22;4249;49.072;9.770;2022-09-13T00:18:50;12.50;1.00
8424;DHT22;4249;49.072;9.770;2022-09-13T00:21:37;12.60;1.00
8424;DHT22;4249;49.072;9.770;2022-09-13T00:24:24;12.60;1.00
8424;DHT22;4249;49.072;9.770;2022-09-13T00:27:12;12.60;1.00
8424;DHT22;4249;49.072;9.770;2022-09-13T00:29:59;12.50;1.00
8424;DHT22;4249;49.072;9.770;2022-09-13T00:32:47;12.60;1.00
8424;DHT22;4249;49.072;9.770;2022-09-13T00:35:35;12.60;1.00
8424;DHT22;4249;49.072;9.770;2022-09-13T00:38:22;12.60;1.00
8424;DHT22;4249;49.072;9.770;2022-09-13T00:41:12;12.70;1.00
8424;DHT22;4249;49.072;9.770;2022-09-13T00:44:01;12.70;1.00
8424;DHT22;4249;49.072;9.770;2022-09-13T00:46:48;12.60;1.00
8424;DHT22;4249;49.072;9.770;2022-09-13T00:49:39;12.50;1.00
8424;DHT22;4249;49.072;9.770;2022-09-13T00:52:28;12.50;1.00
8424;DHT22;4249;49.072;9.770;2022-09-13T00:55:21;12.40;1.00
8424;DHT22;4249;49.072;9.770;2022-09-13T00:58:12;12.30;1.00
8424;DHT22;4249;49.072;9.770;2022-09-13T01:01:04;12.30;1.00
8424;DHT22;4249;49.072;9.770;2022-09-13T01:03:54;12.20;1.00
8424;DHT22;4249;49.072;9.770;2022-09-13T01:06:43;12.20;1.00
8424;DHT22;4249;49.072;9.770;2022-09-13T01:09:30;12.10;1.00
8424;DHT22;4249;49.072;9.770;2022-09-13T01:12:28;12.10;1.00
8424;DHT22;4249;49.072;9.770;2022-09-13T01:15:18;12.00;1.00
8424;DHT22;4249;49.072;9.770;2022-09-13T01:18:06;12.00;1.00
8424;DHT22;4249;49.072;9.770;2022-09-13T01:21:21;11.90;1.00
8424;DHT22;4249;49.072;9.770;2022-09-13T01:28:02;12.00;1.00
8424;DHT22;4249;49.072;9.770;2022-09-13T01:31:01;12.00;1.00
8424;DHT22;4249;49.072;9.770;2022-09-13T01:34:01;12.00;1.00
8424;DHT22;4249;49.072;9.770;2022-09-13T01:37:02;12.10;1.00
8424;DHT22;4249;49.072;9.770;2022-09-13T01:40:02;12.10;1.00
8424;DHT22;4249;49.072;9.770;2022-09-13T01:43:12;12.00;1.00
8424;DHT22;4249;49.072;9.770;2022-09-13T01:46:10;12.00;1.00
8424;DHT22;4249;49.072;9.770;2022-09-13T01:49:02;11.90;1.00
8424;DHT22;4249;49.072;9.770;2022-09-13T01:51:57;11.80;1.00
8424;DHT22;4249;49.072;9.770;2022-09-13T01:54:51;11.80;1.00
8424;DHT22;4249;49.072;9.770;2022-09-13T01:57:45;11.70;1.00
8424;DHT22;4249;49.072;9.770;2022-09-13T02:00:38;11.70;1.00
8424;DHT22;4249;49.072;9.770;2022-09-13T02:03:34;11.70;1.00
8424;DHT22;4249;49.072;9.770;2022-09-13T02:06:26;11.60;1.00
8424;DHT22;4249;49.072;9.770;2022-09-13T02:09:17;11.60;1.00
8424;DHT22;4249;49.072;9.770;2022-09-13T02:12:09;11.60;1.00
8424;DHT22;4249;49.072;9.770;2022-09-13T02:15:01;11.60;1.00
8424;DHT22;4249;49.072;9.770;2022-09-13T02:17:53;11.50;1.00
8424;DHT22;4249;49.072;9.770;2022-09-13T02:20:46;11.50;1.00
8424;DHT22;4249;49.072;9.770;2022-09-13T02:23:38;11.60;1.00
8424;DHT22;4249;49.072;9.770;2022-09-13T02:26:28;11.50;1.00
8424;DHT22;4249;49.072;9.770;2022-09-13T02:29:18;11.50;1.00
8424;DHT22;4249;49.072;9.770;2022-09-13T02:32:09;11.50;1.00
8424;DHT22;4249;49.072;9.770;2022-09-13T02:35:01;11.40;1.00
8424;DHT22;4249;49.072;9.770;2022-09-13T02:37:57;11.40;1.00
8424;DHT22;4249;49.072;9.770;2022-09-13T02:40:51;11.30;1.00
8424;DHT22;4249;49.072;9.770;2022-09-13T02:43:43;11.30;1.00
8424;DHT22;4249;49.072;9.770;2022-09-13T02:46:45;11.20;1.00
8424;DHT22;4249;49.072;9.770;2022-09-13T02:49:41;11.20;1.00
8424;DHT22;4249;49.072;9.770;2022-09-13T02:52:36;11.10;1.00
8424;DHT22;4249;49.072;9.770;2022-09-13T02:55:31;11.10;1.00
8424;DHT22;4249;49.072;9.770;2022-09-13T02:58:27;11.10;1.00
8424;DHT22;4249;49.072;9.770;2022-09-13T03:01:16;11.00;1.00
8424;DHT22;4249;49.072;9.770;2022-09-13T03:04:06;11.10;1.00
8424;DHT22;4249;49.072;9.770;2022-09-13T03:06:53;10.90;1.00
8424;DHT22;4249;49.072;9.770;2022-09-13T03:09:45;10.90;1.00
8424;DHT22;4249;49.072;9.770;2022-09-13T03:12:52;10.90;1.00
8424;DHT22;4249;49.072;9.770;2022-09-13T03:15:55;10.90;1.00
8424;DHT22;4249;49.072;9.770;2022-09-13T03:18:55;11.00;1.00
8424;DHT22;4249;49.072;9.770;2022-09-13T03:22:01;11.00;1.00
8424;DHT22;4249;49.072;9.770;2022-09-13T03:25:02;11.00;1.00
8424;DHT22;4249;49.072;9.770;2022-09-13T03:28:01;11.00;1.00
8424;DHT22;4249;49.072;9.770;2022-09-13T03:30:56;11.00;1.00
8424;DHT22;4249;49.072;9.770;2022-09-13T03:33:49;11.00;1.00
8424;DHT22;4249;49.072;9.770;2022-09-13T03:36:42;11.00;1.00
8424;DHT22;4249;49.072;9.770;2022-09-13T03:39:35;11.00;1.00
8424;DHT22;4249;49.072;9.770;2022-09-13T03:42:31;11.00;1.00
8424;DHT22;4249;49.072;9.770;2022-09-13T03:45:25;10.90;1.00
8424;DHT22;4249;49.072;9.770;2022-09-13T03:48:13;10.90;1.00
8424;DHT22;4249;49.072;9.770;2022-09-13T03:51:01;10.90;1.00
8424;DHT22;4249;49.072;9.770;2022-09-13T03:53:53;10.90;1.00
8424;DHT22;4249;49.072;9.770;2022-09-13T03:56:41;10.80;1.00
8424;DHT22;4249;49.072;9.770;2022-09-13T03:59:29;10.90;1.00
8424;DHT22;4249;49.072;9.770;2022-09-13T04:02:18;10.90;1.00
8424;DHT22;4249;49.072;9.770;2022-09-13T04:05:06;10.90;1.00
8424;DHT22;4249;49.072;9.770;2022-09-13T04:07:53;10.90;1.00
8424;DHT22;4249;49.072;9.770;2022-09-13T04:10:41;10.90;1.00
8424;DHT22;4249;49.072;9.770;2022-09-13T04:13:28;10.90;1.00
8424;DHT22;4249;49.072;9.770;2022-09-13T04:16:15;11.00;1.00
8424;DHT22;4249;49.072;9.770;2022-09-13T04:19:04;11.00;1.00
8424;DHT22;4249;49.072;9.770;2022-09-13T04:21:53;11.00;1.00
8424;DHT22;4249;49.072;9.770;2022-09-13T04:24:40;10.90;1.00
8424;DHT22;4249;49.072;9.770;2022-09-13T04:27:28;10.80;1.00
8424;DHT22;4249;49.072;9.770;2022-09-13T04:30:16;10.90;1.00
8424;DHT22;4249;49.072;9.770;2022-09-13T04:33:03;10.90;1.00
8424;DHT22;4249;49.072;9.770;2022-09-13T04:35:56;11.00;1.00
8424;DHT22;4249;49.072;9.770;2022-09-13T04:38:45;11.00;1.00
8424;DHT22;4249;49.072;9.770;2022-09-13T04:41:33;11.10;1.00
8424;DHT22;4249;49.072;9.770;2022-09-13T04:44:20;11.10;1.00
8424;DHT22;4249;49.072;9.770;2022-09-13T04:47:09;11.10;1.00
8424;DHT22;4249;49.072;9.770;2022-09-13T04:49:56;11.10;1.00
8424;DHT22;4249;49.072;9.770;2022-09-13T04:52:44;11.10;1.00
8424;DHT22;4249;49.072;9.770;2022-09-13T04:55:32;11.10;1.00
8424;DHT22;4249;49.072;9.770;2022-09-13T04:58:21;11.10;1.00
8424;DHT22;4249;49.072;9.770;2022-09-13T05:01:09;11.20;1.00
8424;DHT22;4249;49.072;9.770;2022-09-13T05:03:56;11.10;1.00
8424;DHT22;4249;49.072;9.770;2022-09-13T05:06:43;11.10;1.00
8424;DHT22;4249;49.072;9.770;2022-09-13T05:09:33;11.10;1.00
8424;DHT22;4249;49.072;9.770;2022-09-13T05:12:20;11.20;1.00
8424;DHT22;4249;49.072;9.770;2022-09-13T05:15:08;11.30;1.00
8424;DHT22;4249;49.072;9.770;2022-09-13T05:17:57;11.40;1.00
8424;DHT22;4249;49.072;9.770;2022-09-13T05:20:44;11.50;1.00
8424;DHT22;4249;49.072;9.770;2022-09-13T05:23:31;11.70;1.00
8424;DHT22;4249;49.072;9.770;2022-09-13T05:26:20;11.90;1.00
8424;DHT22;4249;49.072;9.770;2022-09-13T05:29:07;12.00;1.00
8424;DHT22;4249;49.072;9.770;2022-09-13T05:31:54;12.10;1.00
8424;DHT22;4249;49.072;9.770;2022-09-13T05:34:42;12.10;1.00
8424;DHT22;4249;49.072;9.770;2022-09-13T05:37:29;12.20;1.00
8424;DHT22;4249;49.072;9.770;2022-09-13T05:40:16;12.20;1.00
8424;DHT22;4249;49.072;9.770;2022-09-13T05:43:05;12.20;1.00
8424;DHT22;4249;49.072;9.770;2022-09-13T05:45:59;12.20;1.00
8424;DHT22;4249;49.072;9.770;2022-09-13T05:48:48;12.30;1.00
8424;DHT22;4249;49.072;9.770;2022-09-13T05:51:35;12.40;1.00
8424;DHT22;4249;49.072;9.770;2022-09-13T05:54:22;12.60;1.00
8424;DHT22;4249;49.072;9.770;2022-09-13T05:57:09;12.80;1.00
8424;DHT22;4249;49.072;9.770;2022-09-13T05:59:58;13.00;1.00
8424;DHT22;4249;49.072;9.770;2022-09-13T06:02:45;13.10;1.00
8424;DHT22;4249;49.072;9.770;2022-09-13T06:05:32;13.20;1.00
8424;DHT22;4249;49.072;9.770;2022-09-13T06:08:19;13.40;1.00
8424;DHT22;4249;49.072;9.770;2022-09-13T06:11:08;13.50;1.00
8424;DHT22;4249;49.072;9.770;2022-09-13T06:13:56;13.60;1.00
8424;DHT22;4249;49.072;9.770;2022-09-13T06:16:44;13.80;1.00
8424;DHT22;4249;49.072;9.770;2022-09-13T06:19:32;13.80;1.00
8424;DHT22;4249;49.072;9.770;2022-09-13T06:22:19;14.00;1.00
8424;DHT22;4249;49.072;9.770;2022-09-13T06:25:07;14.10;1.00
8424;DHT22;4249;49.072;9.770;2022-09-13T06:27:54;14.30;1.00
8424;DHT22;4249;49.072;9.770;2022-09-13T06:30:41;14.50;1.00
8424;DHT22;4249;49.072;9.770;2022-09-13T06:33:30;14.80;1.00
8424;DHT22;4249;49.072;9.770;2022-09-13T06:36:18;15.00;1.00
8424;DHT22;4249;49.072;9.770;2022-09-13T06:39:06;15.40;1.00
8424;DHT22;4249;49.072;9.770;2022-09-13T06:41:53;15.80;99.90
8424;DHT22;4249;49.072;9.770;2022-09-13T06:44:40;16.20;99.90
8424;DHT22;4249;49.072;9.770;2022-09-13T06:47:28;16.50;1.00
8424;DHT22;4249;49.072;9.770;2022-09-13T06:50:17;16.80;99.90
8424;DHT22;4249;49.072;9.770;2022-09-13T06:53:04;16.90;95.90
8424;DHT22;4249;49.072;9.770;2022-09-13T06:55:59;17.30;1.00
8424;DHT22;4249;49.072;9.770;2022-09-13T06:58:47;17.70;1.00
8424;DHT22;4249;49.072;9.770;2022-09-13T07:01:36;18.00;1.00
8424;DHT22;4249;49.072;9.770;2022-09-13T07:04:24;18.40;1.00
8424;DHT22;4249;49.072;9.770;2022-09-13T07:07:12;18.90;99.90
8424;DHT22;4249;49.072;9.770;2022-09-13T07:09:59;19.70;1.00
8424;DHT22;4249;49.072;9.770;2022-09-13T07:12:46;20.70;99.90
8424;DHT22;4249;49.072;9.770;2022-09-13T07:15:35;21.80;99.90
8424;DHT22;4249;49.072;9.770;2022-09-13T07:18:22;22.80;1.00
8424;DHT22;4249;49.072;9.770;2022-09-13T07:21:10;23.60;1.00
8424;DHT22;4249;49.072;9.770;2022-09-13T07:23:59;24.10;1.00
8424;DHT22;4249;49.072;9.770;2022-09-13T07:26:47;24.90;1.00
8424;DHT22;4249;49.072;9.770;2022-09-13T07:29:35;26.10;1.00
8424;DHT22;4249;49.072;9.770;2022-09-13T07:32:22;27.20;1.00
8424;DHT22;4249;49.072;9.770;2022-09-13T07:35:09;27.20;1.00
8424;DHT22;4249;49.072;9.770;2022-09-13T07:37:56;28.10;1.00
8424;DHT22;4249;49.072;9.770;2022-09-13T07:40:52;29.30;1.00
8424;DHT22;4249;49.072;9.770;2022-09-13T07:43:39;30.30;1.00
8424;DHT22;4249;49.072;9.770;2022-09-13T07:46:27;30.40;1.00
8424;DHT22;4249;49.072;9.770;2022-09-13T07:49:17;29.50;1.00
8424;DHT22;4249;49.072;9.770;2022-09-13T07:52:05;28.40;1.00
8424;DHT22;4249;49.072;9.770;2022-09-13T07:54:52;27.70;1.00
8424;DHT22;4249;49.072;9.770;2022-09-13T07:57:40;27.30;1.00
8424;DHT22;4249;49.072;9.770;2022-09-13T08:00:28;26.80;1.00
8424;DHT22;4249;49.072;9.770;2022-09-13T08:03:15;26.30;1.00
8424;DHT22;4249;49.072;9.770;2022-09-13T08:06:03;25.80;1.00
8424;DHT22;4249;49.072;9.770;2022-09-13T08:08:51;25.40;1.00
8424;DHT22;4249;49.072;9.770;2022-09-13T08:11:40;25.20;1.00
8424;DHT22;4249;49.072;9.770;2022-09-13T08:14:28;25.10;1.00
8424;DHT22;4249;49.072;9.770;2022-09-13T08:17:15;25.00;1.00
8424;DHT22;4249;49.072;9.770;2022-09-13T08:20:04;25.00;1.00
8424;DHT22;4249;49.072;9.770;2022-09-13T08:22:51;25.10;1.00
8424;DHT22;4249;49.072;9.770;2022-09-13T08:25:38;25.10;1.00
8424;DHT22;4249;49.072;9.770;2022-09-13T08:28:26;25.20;1.00
8424;DHT22;4249;49.072;9.770;2022-09-13T08:31:15;25.30;1.00
8424;DHT22;4249;49.072;9.770;2022-09-13T08:34:03;25.40;1.00
8424;DHT22;4249;49.072;9.770;2022-09-13T08:36:50;25.30;1.00
8424;DHT22;4249;49.072;9.770;2022-09-13T08:39:37;25.30;1.00
8424;DHT22;4249;49.072;9.770;2022-09-13T08:42:33;25.40;1.00
8424;DHT22;4249;49.072;9.770;2022-09-13T08:45:25;25.60;1.00
8424;DHT22;4249;49.072;9.770;2022-09-13T08:48:19;25.80;1.00
8424;DHT22;4249;49.072;9.770;2022-09-13T08:51:23;26.00;1.00
8424;DHT22;4249;49.072;9.770;2022-09-13T08:54:15;26.20;1.00
8424;DHT22;4249;49.072;9.770;2022-09-13T08:57:08;26.30;1.00
8424;DHT22;4249;49.072;9.770;2022-09-13T09:00:04;26.30;1.00
8424;DHT22;4249;49.072;9.770;2022-09-13T09:03:07;26.30;1.00
8424;DHT22;4249;49.072;9.770;2022-09-13T09:05:59;26.20;1.00
8424;DHT22;4249;49.072;9.770;2022-09-13T09:08:50;26.30;1.00
8424;DHT22;4249;49.072;9.770;2022-09-13T09:11:42;26.40;1.00
8424;DHT22;4249;49.072;9.770;2022-09-13T09:14:34;26.30;1.00
8424;DHT22;4249;49.072;9.770;2022-09-13T09:17:25;26.40;1.00
8424;DHT22;4249;49.072;9.770;2022-09-13T09:20:23;26.40;1.00
8424;DHT22;4249;49.072;9.770;2022-09-13T09:23:16;26.20;1.00
8424;DHT22;4249;49.072;9.770;2022-09-13T09:26:14;26.20;1.00
8424;DHT22;4249;49.072;9.770;2022-09-13T09:29:13;26.20;1.00
8424;DHT22;4249;49.072;9.770;2022-09-13T09:32:11;26.40;1.00
8424;DHT22;4249;49.072;9.770;2022-09-13T09:35:11;26.70;1.00
8424;DHT22;4249;49.072;9.770;2022-09-13T09:38:21;27.10;1.00
8424;DHT22;4249;49.072;9.770;2022-09-13T09:41:18;27.10;1.00
8424;DHT22;4249;49.072;9.770;2022-09-13T09:44:27;27.10;1.00
8424;DHT22;4249;49.072;9.770;2022-09-13T09:47:20;27.20;1.00
8424;DHT22;4249;49.072;9.770;2022-09-13T09:50:10;27.00;1.00
8424;DHT22;4249;49.072;9.770;2022-09-13T09:53:04;26.70;1.00
8424;DHT22;4249;49.072;9.770;2022-09-13T09:55:58;26.60;1.00
8424;DHT22;4249;49.072;9.770;2022-09-13T09:58:48;26.50;1.00
8424;DHT22;4249;49.072;9.770;2022-09-13T10:01:37;26.40;1.00
8424;DHT22;4249;49.072;9.770;2022-09-13T10:04:27;26.20;1.00
8424;DHT22;4249;49.072;9.770;2022-09-13T10:07:26;26.20;1.00
8424;DHT22;4249;49.072;9.770;2022-09-13T10:10:21;26.30;1.00
8424;DHT22;4249;49.072;9.770;2022-09-13T10:13:16;26.40;1.00
8424;DHT22;4249;49.072;9.770;2022-09-13T10:16:06;26.60;1.00
8424;DHT22;4249;49.072;9.770;2022-09-13T10:19:23;27.00;1.00
8424;DHT22;4249;49.072;9.770;2022-09-13T10:22:11;27.40;1.00
8424;DHT22;4249;49.072;9.770;2022-09-13T10:25:13;27.70;1.00
8424;DHT22;4249;49.072;9.770;2022-09-13T10:28:04;27.90;1.00
8424;DHT22;4249;49.072;9.770;2022-09-13T10:30:58;28.00;1.00
8424;DHT22;4249;49.072;9.770;2022-09-13T10:33:55;28.10;1.00
8424;DHT22;4249;49.072;9.770;2022-09-13T10:36:50;28.30;1.00
8424;DHT22;4249;49.072;9.770;2022-09-13T10:39:52;28.30;1.00
8424;DHT22;4249;49.072;9.770;2022-09-13T10:42:49;28.20;1.00
8424;DHT22;4249;49.072;9.770;2022-09-13T10:45:39;28.10;1.00
8424;DHT22;4249;49.072;9.770;2022-09-13T10:48:30;28.00;1.00
8424;DHT22;4249;49.072;9.770;2022-09-13T10:51:32;27.90;1.00
8424;DHT22;4249;49.072;9.770;2022-09-13T10:54:22;28.10;1.00
8424;DHT22;4249;49.072;9.770;2022-09-13T10:57:33;28.20;1.00
8424;DHT22;4249;49.072;9.770;2022-09-13T11:00:22;28.30;1.00
8424;DHT22;4249;49.072;9.770;2022-09-13T11:03:24;28.40;1.00
8424;DHT22;4249;49.072;9.770;2022-09-13T11:06:23;28.50;1.00
8424;DHT22;4249;49.072;9.770;2022-09-13T11:09:18;28.40;1.00
8424;DHT22;4249;49.072;9.770;2022-09-13T11:12:13;27.80;1.00
8424;DHT22;4249;49.072;9.770;2022-09-13T11:15:12;27.90;1.00
8424;DHT22;4249;49.072;9.770;2022-09-13T11:18:23;28.10;1.00
8424;DHT22;4249;49.072;9.770;2022-09-13T11:21:22;28.10;1.00
8424;DHT22;4249;49.072;9.770;2022-09-13T11:24:33;28.10;1.00
8424;DHT22;4249;49.072;9.770;2022-09-13T11:27:31;28.10;1.00
8424;DHT22;4249;49.072;9.770;2022-09-13T11:30:22;28.10;1.00
8424;DHT22;4249;49.072;9.770;2022-09-13T11:33:22;28.20;1.00
8424;DHT22;4249;49.072;9.770;2022-09-13T11:39:37;28.20;1.00
8424;DHT22;4249;49.072;9.770;2022-09-13T11:42:35;28.30;1.00
8424;DHT22;4249;49.072;9.770;2022-09-13T11:45:27;28.30;1.00
8424;DHT22;4249;49.072;9.770;2022-09-13T11:51:40;28.70;1.00
8424;DHT22;4249;49.072;9.770;2022-09-13T11:54:52;28.80;1.00
8424;DHT22;4249;49.072;9.770;2022-09-13T11:57:44;28.70;1.00
8424;DHT22;4249;49.072;9.770;2022-09-13T12:00:37;28.60;1.00
8424;DHT22;4249;49.072;9.770;2022-09-13T12:03:30;28.50;1.00
8424;DHT22;4249;49.072;9.770;2022-09-13T12:06:22;28.40;1.00
8424;DHT22;4249;49.072;9.770;2022-09-13T12:09:16;28.30;1.00
8424;DHT22;4249;49.072;9.770;2022-09-13T12:12:09;28.20;1.00
8424;DHT22;4249;49.072;9.770;2022-09-13T12:15:02;28.20;1.00
8424;DHT22;4249;49.072;9.770;2022-09-13T12:17:55;28.30;1.00
8424;DHT22;4249;49.072;9.770;2022-09-13T12:20:47;28.40;1.00
8424;DHT22;4249;49.072;9.770;2022-09-13T12:23:40;28.50;1.00
8424;DHT22;4249;49.072;9.770;2022-09-13T12:26:32;28.30;1.00
8424;DHT22;4249;49.072;9.770;2022-09-13T12:29:28;28.10;1.00
8424;DHT22;4249;49.072;9.770;2022-09-13T12:32:18;28.00;1.00
8424;DHT22;4249;49.072;9.770;2022-09-13T12:35:08;28.00;1.00
8424;DHT22;4249;49.072;9.770;2022-09-13T12:38:26;27.90;1.00
8424;DHT22;4249;49.072;9.770;2022-09-13T12:41:28;28.00;1.00
8424;DHT22;4249;49.072;9.770;2022-09-13T12:44:31;27.70;1.00
8424;DHT22;4249;49.072;9.770;2022-09-13T12:47:48;27.50;1.00
8424;DHT22;4249;49.072;9.770;2022-09-13T12:50:58;27.20;1.00
8424;DHT22;4249;49.072;9.770;2022-09-13T12:54:08;26.90;1.00
8424;DHT22;4249;49.072;9.770;2022-09-13T12:57:13;26.70;1.00
8424;DHT22;4249;49.072;9.770;2022-09-13T13:00:12;26.80;1.00
8424;DHT22;4249;49.072;9.770;2022-09-13T13:03:11;26.70;1.00
8424;DHT22;4249;49.072;9.770;2022-09-13T13:06:08;26.80;1.00
8424;DHT22;4249;49.072;9.770;2022-09-13T13:08:58;26.90;1.00
8424;DHT22;4249;49.072;9.770;2022-09-13T13:11:47;26.90;1.00
8424;DHT22;4249;49.072;9.770;2022-09-13T13:14:46;27.10;1.00
8424;DHT22;4249;49.072;9.770;2022-09-13T13:17:47;27.10;1.00
8424;DHT22;4249;49.072;9.770;2022-09-13T13:20:46;27.30;1.00
8424;DHT22;4249;49.072;9.770;2022-09-13T13:23:35;27.60;1.00
8424;DHT22;4249;49.072;9.770;2022-09-13T13:26:44;27.70;1.00
8424;DHT22;4249;49.072;9.770;2022-09-13T13:29:32;27.80;1.00
8424;DHT22;4249;49.072;9.770;2022-09-13T13:32:20;27.90;1.00
8424;DHT22;4249;49.072;9.770;2022-09-13T13:35:28;28.00;1.00
8424;DHT22;4249;49.072;9.770;2022-09-13T13:38:38;28.00;1.00
8424;DHT22;4249;49.072;9.770;2022-09-13T13:41:45;28.10;1.00
8424;DHT22;4249;49.072;9.770;2022-09-13T13:45:06;28.10;1.00
8424;DHT22;4249;49.072;9.770;2022-09-13T13:48:09;28.10;1.00
8424;DHT22;4249;49.072;9.770;2022-09-13T13:51:26;27.90;1.00
8424;DHT22;4249;49.072;9.770;2022-09-13T13:54:32;27.60;1.00
8424;DHT22;4249;49.072;9.770;2022-09-13T13:57:41;27.60;1.00
8424;DHT22;4249;49.072;9.770;2022-09-13T14:00:45;27.40;1.00
8424;DHT22;4249;49.072;9.770;2022-09-13T14:03:48;27.20;1.00
8424;DHT22;4249;49.072;9.770;2022-09-13T14:06:46;27.10;1.00
8424;DHT22;4249;49.072;9.770;2022-09-13T14:09:41;27.00;1.00
8424;DHT22;4249;49.072;9.770;2022-09-13T14:12:39;27.00;1.00
8424;DHT22;4249;49.072;9.770;2022-09-13T14:15:41;27.00;1.00
8424;DHT22;4249;49.072;9.770;2022-09-13T14:22:04;26.90;1.00
8424;DHT22;4249;49.072;9.770;2022-09-13T14:24:53;26.90;1.00
8424;DHT22;4249;49.072;9.770;2022-09-13T14:27:42;27.00;1.00
8424;DHT22;4249;49.072;9.770;2022-09-13T14:30:31;27.20;1.00
8424;DHT22;4249;49.072;9.770;2022-09-13T14:33:23;27.20;1.00
8424;DHT22;4249;49.072;9.770;2022-09-13T14:36:18;27.30;1.00
8424;DHT22;4249;49.072;9.770;2022-09-13T14:39:08;27.40;1.00
8424;DHT22;4249;49.072;9.770;2022-09-13T14:42:00;27.40;1.00
8424;DHT22;4249;49.072;9.770;2022-09-13T14:44:48;27.40;1.00
8424;DHT22;4249;49.072;9.770;2022-09-13T14:47:40;27.40;1.00
8424;DHT22;4249;49.072;9.770;2022-09-13T14:50:32;27.40;1.00
8424;DHT22;4249;49.072;9.770;2022-09-13T14:53:23;27.40;1.00
8424;DHT22;4249;49.072;9.770;2022-09-13T14:56:15;27.40;1.00
8424;DHT22;4249;49.072;9.770;2022-09-13T14:59:05;27.30;1.00
8424;DHT22;4249;49.072;9.770;2022-09-13T15:01:53;27.10;1.00
8424;DHT22;4249;49.072;9.770;2022-09-13T15:04:48;27.00;1.00
8424;DHT22;4249;49.072;9.770;2022-09-13T15:07:37;27.00;1.00
8424;DHT22;4249;49.072;9.770;2022-09-13T15:10:27;27.00;1.00
8424;DHT22;4249;49.072;9.770;2022-09-13T15:13:16;26.90;1.00
8424;DHT22;4249;49.072;9.770;2022-09-13T15:16:24;26.70;1.00
8424;DHT22;4249;49.072;9.770;2022-09-13T15:19:16;26.60;1.00
8424;DHT22;4249;49.072;9.770;2022-09-13T15:22:16;26.40;1.00
8424;DHT22;4249;49.072;9.770;2022-09-13T15:25:04;26.30;1.00
8424;DHT22;4249;49.072;9.770;2022-09-13T15:27:53;26.20;1.00
8424;DHT22;4249;49.072;9.770;2022-09-13T15:30:43;26.20;1.00
8424;DHT22;4249;49.072;9.770;2022-09-13T15:33:31;26.20;1.00
8424;DHT22;4249;49.072;9.770;2022-09-13T15:36:27;26.30;1.00
8424;DHT22;4249;49.072;9.770;2022-09-13T15:39:17;26.30;1.00
8424;DHT22;4249;49.072;9.770;2022-09-13T15:42:05;26.30;1.00
8424;DHT22;4249;49.072;9.770;2022-09-13T15:44:53;26.20;1.00
8424;DHT22;4249;49.072;9.770;2022-09-13T15:47:44;26.10;1.00
8424;DHT22;4249;49.072;9.770;2022-09-13T15:50:32;26.10;1.00
8424;DHT22;4249;49.072;9.770;2022-09-13T15:53:19;25.90;1.00
8424;DHT22;4249;49.072;9.770;2022-09-13T15:56:08;26.00;1.00
8424;DHT22;4249;49.072;9.770;2022-09-13T15:58:55;25.80;1.00
8424;DHT22;4249;49.072;9.770;2022-09-13T16:01:43;25.80;1.00
8424;DHT22;4249;49.072;9.770;2022-09-13T16:04:32;25.70;1.00
8424;DHT22;4249;49.072;9.770;2022-09-13T16:07:20;25.60;1.00
8424;DHT22;4249;49.072;9.770;2022-09-13T16:10:13;25.40;1.00
8424;DHT22;4249;49.072;9.770;2022-09-13T16:13:00;25.30;1.00
8424;DHT22;4249;49.072;9.770;2022-09-13T16:15:48;25.20;1.00
8424;DHT22;4249;49.072;9.770;2022-09-13T16:18:35;25.10;1.00
8424;DHT22;4249;49.072;9.770;2022-09-13T16:21:23;24.90;1.00
8424;DHT22;4249;49.072;9.770;2022-09-13T16:24:11;24.80;1.00
8424;DHT22;4249;49.072;9.770;2022-09-13T16:26:58;24.70;1.00
8424;DHT22;4249;49.072;9.770;2022-09-13T16:29:46;24.60;1.00
8424;DHT22;4249;49.072;9.770;2022-09-13T16:32:33;24.40;1.00
8424;DHT22;4249;49.072;9.770;2022-09-13T16:35:21;24.20;1.00
8424;DHT22;4249;49.072;9.770;2022-09-13T16:38:10;24.10;1.00
8424;DHT22;4249;49.072;9.770;2022-09-13T16:40:57;24.00;1.00
8424;DHT22;4249;49.072;9.770;2022-09-13T16:43:44;24.00;1.00
8424;DHT22;4249;49.072;9.770;2022-09-13T16:46:32;23.90;1.00
8424;DHT22;4249;49.072;9.770;2022-09-13T16:49:19;23.80;1.00
8424;DHT22;4249;49.072;9.770;2022-09-13T16:52:07;23.70;1.00
8424;DHT22;4249;49.072;9.770;2022-09-13T16:54:56;23.60;1.00
8424;DHT22;4249;49.072;9.770;2022-09-13T16:57:43;23.50;1.00
8424;DHT22;4249;49.072;9.770;2022-09-13T17:00:33;23.40;1.00
8424;DHT22;4249;49.072;9.770;2022-09-13T17:03:20;23.30;1.00
8424;DHT22;4249;49.072;9.770;2022-09-13T17:06:09;23.30;1.00
8424;DHT22;4249;49.072;9.770;2022-09-13T17:08:59;23.20;1.00
8424;DHT22;4249;49.072;9.770;2022-09-13T17:11:47;23.10;1.00
8424;DHT22;4249;49.072;9.770;2022-09-13T17:14:35;23.00;1.00
8424;DHT22;4249;49.072;9.770;2022-09-13T17:17:23;22.90;1.00
8424;DHT22;4249;49.072;9.770;2022-09-13T17:20:11;22.90;1.00
8424;DHT22;4249;49.072;9.770;2022-09-13T17:22:59;22.80;1.00
8424;DHT22;4249;49.072;9.770;2022-09-13T17:25:47;22.80;1.00
8424;DHT22;4249;49.072;9.770;2022-09-13T17:28:36;22.80;1.00
8424;DHT22;4249;49.072;9.770;2022-09-13T17:31:23;22.70;1.00
8424;DHT22;4249;49.072;9.770;2022-09-13T17:34:11;22.60;1.00
8424;DHT22;4249;49.072;9.770;2022-09-13T17:36:59;22.50;1.00
8424;DHT22;4249;49.072;9.770;2022-09-13T17:39:48;22.40;1.00
8424;DHT22;4249;49.072;9.770;2022-09-13T17:42:35;22.30;1.00
8424;DHT22;4249;49.072;9.770;2022-09-13T17:45:24;22.20;1.00
8424;DHT22;4249;49.072;9.770;2022-09-13T17:48:11;22.20;1.00
8424;DHT22;4249;49.072;9.770;2022-09-13T17:51:02;22.00;1.00
8424;DHT22;4249;49.072;9.770;2022-09-13T17:53:51;21.90;1.00
8424;DHT22;4249;49.072;9.770;2022-09-13T17:56:41;21.80;1.00
8424;DHT22;4249;49.072;9.770;2022-09-13T17:59:28;21.70;1.00
8424;DHT22;4249;49.072;9.770;2022-09-13T18:02:18;21.50;1.00
8424;DHT22;4249;49.072;9.770;2022-09-13T18:05:07;21.40;1.00
8424;DHT22;4249;49.072;9.770;2022-09-13T18:07:54;21.40;1.00
8424;DHT22;4249;49.072;9.770;2022-09-13T18:10:42;21.30;1.00
8424;DHT22;4249;49.072;9.770;2022-09-13T18:13:29;21.20;1.00
8424;DHT22;4249;49.072;9.770;2022-09-13T18:16:19;21.00;1.00
8424;DHT22;4249;49.072;9.770;2022-09-13T18:19:08;21.00;1.00
8424;DHT22;4249;49.072;9.770;2022-09-13T18:21:55;21.00;1.00
8424;DHT22;4249;49.072;9.770;2022-09-13T18:24:42;20.90;1.00
8424;DHT22;4249;49.072;9.770;2022-09-13T18:27:29;20.90;1.00
8424;DHT22;4249;49.072;9.770;2022-09-13T18:30:17;20.80;1.00
8424;DHT22;4249;49.072;9.770;2022-09-13T18:33:04;20.70;1.00
8424;DHT22;4249;49.072;9.770;2022-09-13T18:35:57;20.60;1.00
8424;DHT22;4249;49.072;9.770;2022-09-13T18:38:47;20.60;1.00
8424;DHT22;4249;49.072;9.770;2022-09-13T18:41:35;20.50;1.00
8424;DHT22;4249;49.072;9.770;2022-09-13T18:44:25;20.60;1.00
8424;DHT22;4249;49.072;9.770;2022-09-13T18:47:15;20.60;1.00
8424;DHT22;4249;49.072;9.770;2022-09-13T18:50:02;20.80;1.00
8424;DHT22;4249;49.072;9.770;2022-09-13T18:52:51;20.80;1.00
8424;DHT22;4249;49.072;9.770;2022-09-13T18:55:38;20.80;1.00
8424;DHT22;4249;49.072;9.770;2022-09-13T18:58:28;20.90;1.00
8424;DHT22;4249;49.072;9.770;2022-09-13T19:01:17;20.90;1.00
8424;DHT22;4249;49.072;9.770;2022-09-13T19:04:06;20.80;1.00
8424;DHT22;4249;49.072;9.770;2022-09-13T19:06:54;20.60;1.00
8424;DHT22;4249;49.072;9.770;2022-09-13T19:09:43;20.50;1.00
8424;DHT22;4249;49.072;9.770;2022-09-13T19:12:30;20.40;1.00
8424;DHT22;4249;49.072;9.770;2022-09-13T19:14:57;20.30;1.00